sensor_id;sensor_type;location;lat;lon;timestamp;pressure;altitude;pressure_sealevel;temperature;humidity
78313;BME280;67568;47.438;21.408;2023-04-15T00:00:55;99640.59;;;7.40;85.30
78313;BME280;67568;47.438;21.408;2023-04-15T00:03:21;99643.38;;;7.54;86.15
78313;BME280;67568;47.438;21.408;2023-04-15T00:05:48;99641.53;;;7.49;86.01
78313;BME280;67568;47.438;21.408;2023-04-15T00:08:15;99638.94;;;7.39;86.35
78313;BME280;67568;47.438;21.408;2023-04-15T00:10:41;99646.38;;;7.38;86.43
78313;BME280;67568;47.438;21.408;2023-04-15T00:13:08;99646.00;;;7.45;85.26
78313;BME280;67568;47.438;21.408;2023-04-15T00:15:35;99646.47;;;7.52;84.66
78313;BME280;67568;47.438;21.408;2023-04-15T00:18:01;99643.09;;;7.55;84.60
78313;BME280;67568;47.438;21.408;2023-04-15T00:20:28;99643.63;;;7.57;84.43
78313;BME280;67568;47.438;21.408;2023-04-15T00:22:54;99637.66;;;7.50;86.69
78313;BME280;67568;47.438;21.408;2023-04-15T00:25:21;99633.56;;;7.48;85.36
78313;BME280;67568;47.438;21.408;2023-04-15T00:27:48;99633.19;;;7.54;85.87
78313;BME280;67568;47.438;21.408;2023-04-15T00:30:14;99638.25;;;7.47;86.76
78313;BME280;67568;47.438;21.408;2023-04-15T00:32:41;99640.50;;;7.45;86.99
78313;BME280;67568;47.438;21.408;2023-04-15T00:35:08;99640.50;;;7.45;86.66
78313;BME280;67568;47.438;21.408;2023-04-15T00:37:34;99637.72;;;7.45;86.79
78313;BME280;67568;47.438;21.408;2023-04-15T00:40:01;99649.06;;;7.43;87.56
78313;BME280;67568;47.438;21.408;2023-04-15T00:42:27;99633.13;;;7.40;89.58
78313;BME280;67568;47.438;21.408;2023-04-15T00:44:54;99635.50;;;7.28;89.90
78313;BME280;67568;47.438;21.408;2023-04-15T00:47:21;99639.59;;;7.31;88.82
78313;BME280;67568;47.438;21.408;2023-04-15T00:49:48;99636.63;;;7.27;88.31
78313;BME280;67568;47.438;21.408;2023-04-15T00:52:14;99645.94;;;7.31;89.50
78313;BME280;67568;47.438;21.408;2023-04-15T00:54:41;99641.75;;;7.34;88.36
78313;BME280;67568;47.438;21.408;2023-04-15T00:57:08;99643.91;;;7.37;88.96
78313;BME280;67568;47.438;21.408;2023-04-15T00:59:35;99652.72;;;7.39;89.25
78313;BME280;67568;47.438;21.408;2023-04-15T01:02:01;99640.59;;;7.40;89.68
78313;BME280;67568;47.438;21.408;2023-04-15T01:04:28;99644.16;;;7.40;88.30
78313;BME280;67568;47.438;21.408;2023-04-15T01:06:55;99644.97;;;7.41;88.35
78313;BME280;67568;47.438;21.408;2023-04-15T01:09:22;99646.59;;;7.42;89.66
78313;BME280;67568;47.438;21.408;2023-04-15T01:11:48;99639.69;;;7.44;89.19
78313;BME280;67568;47.438;21.408;2023-04-15T01:14:15;99640.50;;;7.45;88.91
78313;BME280;67568;47.438;21.408;2023-04-15T01:16:42;99648.16;;;7.48;87.87
78313;BME280;67568;47.438;21.408;2023-04-15T01:19:09;99648.69;;;7.50;87.95
78313;BME280;67568;47.438;21.408;2023-04-15T01:21:36;99632.97;;;7.51;89.95
78313;BME280;67568;47.438;21.408;2023-04-15T01:24:08;99642.56;;;7.53;89.70
78313;BME280;67568;47.438;21.408;2023-04-15T01:26:37;99636.25;;;7.53;90.03
78313;BME280;67568;47.438;21.408;2023-04-15T01:29:03;99636.78;;;7.55;88.62
78313;BME280;67568;47.438;21.408;2023-04-15T01:31:30;99639.53;;;7.55;87.93
78313;BME280;67568;47.438;21.408;2023-04-15T01:33:58;99637.88;;;7.54;88.80
78313;BME280;67568;47.438;21.408;2023-04-15T01:36:25;99631.53;;;7.53;88.39
78313;BME280;67568;47.438;21.408;2023-04-15T01:38:53;99639.59;;;7.50;87.60
78313;BME280;67568;47.438;21.408;2023-04-15T01:41:24;99632.16;;;7.50;87.85
78313;BME280;67568;47.438;21.408;2023-04-15T01:43:51;99633.78;;;7.51;89.00
78313;BME280;67568;47.438;21.408;2023-04-15T01:46:18;99636.63;;;7.46;88.54
78313;BME280;67568;47.438;21.408;2023-04-15T01:48:45;99635.06;;;7.40;88.38
78313;BME280;67568;47.438;21.408;2023-04-15T01:51:11;99640.34;;;7.36;87.78
78313;BME280;67568;47.438;21.408;2023-04-15T01:53:38;99640.66;;;7.35;87.69
78313;BME280;67568;47.438;21.408;2023-04-15T01:56:05;99644.75;;;7.37;86.47
78313;BME280;67568;47.438;21.408;2023-04-15T01:58:32;99654.94;;;7.37;87.72
78313;BME280;67568;47.438;21.408;2023-04-15T02:00:58;99649.34;;;7.42;88.10
78313;BME280;67568;47.438;21.408;2023-04-15T02:03:25;99651.09;;;7.38;87.08
78313;BME280;67568;47.438;21.408;2023-04-15T02:05:52;99652.13;;;7.42;87.11
78313;BME280;67568;47.438;21.408;2023-04-15T02:08:18;99646.00;;;7.45;87.27
78313;BME280;67568;47.438;21.408;2023-04-15T02:10:45;99657.03;;;7.45;87.59
78313;BME280;67568;47.438;21.408;2023-04-15T02:13:12;99648.84;;;7.40;86.96
78313;BME280;67568;47.438;21.408;2023-04-15T02:15:39;99644.97;;;7.41;86.26
78313;BME280;67568;47.438;21.408;2023-04-15T02:18:05;99642.75;;;7.43;85.95
78313;BME280;67568;47.438;21.408;2023-04-15T02:20:32;99641.00;;;7.47;86.03
78313;BME280;67568;47.438;21.408;2023-04-15T02:22:58;99635.56;;;7.42;85.43
78313;BME280;67568;47.438;21.408;2023-04-15T02:25:25;99633.94;;;7.41;86.20
78313;BME280;67568;47.438;21.408;2023-04-15T02:27:52;99633.34;;;7.44;86.54
78313;BME280;67568;47.438;21.408;2023-04-15T02:30:18;99631.72;;;7.43;86.19
78313;BME280;67568;47.438;21.408;2023-04-15T02:32:45;99629.91;;;7.33;85.87
78313;BME280;67568;47.438;21.408;2023-04-15T02:35:12;99624.19;;;7.30;86.02
78313;BME280;67568;47.438;21.408;2023-04-15T02:37:38;99627.97;;;7.34;85.25
78313;BME280;67568;47.438;21.408;2023-04-15T02:40:08;99627.22;;;7.28;85.81
78313;BME280;67568;47.438;21.408;2023-04-15T02:42:35;99625.88;;;7.26;86.56
78313;BME280;67568;47.438;21.408;2023-04-15T02:45:02;99630.38;;;7.21;86.39
78313;BME280;67568;47.438;21.408;2023-04-15T02:47:28;99612.28;;;7.15;86.03
78313;BME280;67568;47.438;21.408;2023-04-15T02:49:55;99619.50;;;7.11;86.71
78313;BME280;67568;47.438;21.408;2023-04-15T02:52:21;99604.22;;;7.00;85.75
78313;BME280;67568;47.438;21.408;2023-04-15T02:54:48;99609.06;;;7.08;86.64
78313;BME280;67568;47.438;21.408;2023-04-15T02:57:17;99617.72;;;7.02;85.85
78313;BME280;67568;47.438;21.408;2023-04-15T02:59:44;99625.97;;;7.02;85.30
78313;BME280;67568;47.438;21.408;2023-04-15T03:02:11;99629.59;;;6.97;85.86
78313;BME280;67568;47.438;21.408;2023-04-15T03:04:37;99624.19;;;6.92;86.45
78313;BME280;67568;47.438;21.408;2023-04-15T03:07:04;99623.06;;;6.93;86.22
78313;BME280;67568;47.438;21.408;2023-04-15T03:09:31;99626.34;;;6.95;87.18
78313;BME280;67568;47.438;21.408;2023-04-15T03:11:57;99633.09;;;6.84;86.67
78313;BME280;67568;47.438;21.408;2023-04-15T03:14:24;99631.16;;;6.84;86.38
78313;BME280;67568;47.438;21.408;2023-04-15T03:16:50;99621.56;;;6.82;87.51
78313;BME280;67568;47.438;21.408;2023-04-15T03:19:17;99623.72;;;6.85;86.43
78313;BME280;67568;47.438;21.408;2023-04-15T03:21:44;99623.28;;;6.78;85.94
78313;BME280;67568;47.438;21.408;2023-04-15T03:24:10;99626.09;;;6.72;85.79
78313;BME280;67568;47.438;21.408;2023-04-15T03:26:37;99624.09;;;6.78;86.92
78313;BME280;67568;47.438;21.408;2023-04-15T03:29:03;99628.84;;;6.72;87.03
78313;BME280;67568;47.438;21.408;2023-04-15T03:31:30;99627.72;;;6.73;85.94
78313;BME280;67568;47.438;21.408;2023-04-15T03:33:56;99625.50;;;6.75;86.22
78313;BME280;67568;47.438;21.408;2023-04-15T03:36:23;99633.63;;;6.62;86.25
78313;BME280;67568;47.438;21.408;2023-04-15T03:38:50;99629.53;;;6.59;86.09
78313;BME280;67568;47.438;21.408;2023-04-15T03:41:16;99625.38;;;6.62;87.09
78313;BME280;67568;47.438;21.408;2023-04-15T03:43:43;99625.16;;;6.58;86.22
78313;BME280;67568;47.438;21.408;2023-04-15T03:46:09;99624.63;;;6.56;86.45
78313;BME280;67568;47.438;21.408;2023-04-15T03:48:36;99627.38;;;6.56;86.28
78313;BME280;67568;47.438;21.408;2023-04-15T03:51:03;99625.16;;;6.58;86.92
78313;BME280;67568;47.438;21.408;2023-04-15T03:53:29;99641.94;;;6.57;86.00
78313;BME280;67568;47.438;21.408;2023-04-15T03:55:56;99634.75;;;6.61;85.28
78313;BME280;67568;47.438;21.408;2023-04-15T03:58:22;99651.03;;;6.57;86.74
78313;BME280;67568;47.438;21.408;2023-04-15T04:00:49;99648.81;;;6.59;85.43
78313;BME280;67568;47.438;21.408;2023-04-15T04:03:16;99659.28;;;6.57;85.74
78313;BME280;67568;47.438;21.408;2023-04-15T04:05:42;99666.44;;;6.58;85.80
78313;BME280;67568;47.438;21.408;2023-04-15T04:08:09;99672.75;;;6.59;87.00
78313;BME280;67568;47.438;21.408;2023-04-15T04:10:36;99665.91;;;6.56;85.79
78313;BME280;67568;47.438;21.408;2023-04-15T04:13:02;99672.75;;;6.59;86.30
78313;BME280;67568;47.438;21.408;2023-04-15T04:15:29;99668.72;;;6.51;84.53
78313;BME280;67568;47.438;21.408;2023-04-15T04:17:55;99668.38;;;6.58;84.65
78313;BME280;67568;47.438;21.408;2023-04-15T04:20:22;99662.94;;;6.52;84.66
78313;BME280;67568;47.438;21.408;2023-04-15T04:22:49;99653.28;;;6.55;84.55
78313;BME280;67568;47.438;21.408;2023-04-15T04:25:15;99667.63;;;6.52;85.28
78313;BME280;67568;47.438;21.408;2023-04-15T04:27:42;99663.88;;;6.67;86.50
78313;BME280;67568;47.438;21.408;2023-04-15T04:30:09;99667.59;;;6.76;85.75
78313;BME280;67568;47.438;21.408;2023-04-15T04:32:35;99675.00;;;6.81;85.27
78313;BME280;67568;47.438;21.408;2023-04-15T04:35:03;99667.53;;;6.81;83.92
78313;BME280;67568;47.438;21.408;2023-04-15T04:37:29;99673.97;;;6.71;85.68
78313;BME280;67568;47.438;21.408;2023-04-15T04:39:56;99679.38;;;6.82;85.53
78313;BME280;67568;47.438;21.408;2023-04-15T04:42:23;99678.72;;;6.90;83.69
78313;BME280;67568;47.438;21.408;2023-04-15T04:44:49;99678.13;;;6.93;83.57
78313;BME280;67568;47.438;21.408;2023-04-15T04:47:16;99683.53;;;7.03;84.58
78313;BME280;67568;47.438;21.408;2023-04-15T04:49:42;99680.84;;;6.98;83.21
78313;BME280;67568;47.438;21.408;2023-04-15T04:52:09;99687.63;;;7.25;82.85
78313;BME280;67568;47.438;21.408;2023-04-15T04:54:35;99691.91;;;7.55;81.10
78313;BME280;67568;47.438;21.408;2023-04-15T04:57:02;99680.16;;;7.82;81.66
78313;BME280;67568;47.438;21.408;2023-04-15T04:59:29;99691.13;;;7.87;81.48
78313;BME280;67568;47.438;21.408;2023-04-15T05:01:55;99690.91;;;7.64;81.54
78313;BME280;67568;47.438;21.408;2023-04-15T05:04:22;99699.38;;;7.54;82.41
78313;BME280;67568;47.438;21.408;2023-04-15T05:06:49;99696.38;;;7.70;82.05
78313;BME280;67568;47.438;21.408;2023-04-15T05:09:15;99701.88;;;7.70;80.49
78313;BME280;67568;47.438;21.408;2023-04-15T05:11:42;99703.50;;;7.89;80.41
78313;BME280;67568;47.438;21.408;2023-04-15T05:14:08;99706.06;;;8.51;79.47
78313;BME280;67568;47.438;21.408;2023-04-15T05:16:35;99708.31;;;9.32;77.47
78313;BME280;67568;47.438;21.408;2023-04-15T05:19:01;99700.81;;;9.46;74.75
78313;BME280;67568;47.438;21.408;2023-04-15T05:21:29;99699.72;;;9.34;75.81
78313;BME280;67568;47.438;21.408;2023-04-15T05:23:55;99716.41;;;9.01;77.22
78313;BME280;67568;47.438;21.408;2023-04-15T05:26:22;99713.84;;;9.05;77.23
78313;BME280;67568;47.438;21.408;2023-04-15T05:28:49;99702.38;;;9.25;76.63
78313;BME280;67568;47.438;21.408;2023-04-15T05:31:15;99720.88;;;9.52;76.84
78313;BME280;67568;47.438;21.408;2023-04-15T05:33:42;99727.19;;;9.66;75.39
78313;BME280;67568;47.438;21.408;2023-04-15T05:36:09;99724.41;;;9.66;76.41
78313;BME280;67568;47.438;21.408;2023-04-15T05:38:36;99725.38;;;9.48;75.36
78313;BME280;67568;47.438;21.408;2023-04-15T05:41:02;99724.06;;;9.45;75.89
78313;BME280;67568;47.438;21.408;2023-04-15T05:43:29;99716.88;;;9.44;76.61
78313;BME280;67568;47.438;21.408;2023-04-15T05:45:56;99719.22;;;9.65;75.63
78313;BME280;67568;47.438;21.408;2023-04-15T05:48:22;99717.28;;;9.52;75.99
78313;BME280;67568;47.438;21.408;2023-04-15T05:50:49;99715.69;;;9.23;77.23
78313;BME280;67568;47.438;21.408;2023-04-15T05:53:16;99705.66;;;9.13;77.89
78313;BME280;67568;47.438;21.408;2023-04-15T05:55:42;99708.94;;;9.15;77.76
78313;BME280;67568;47.438;21.408;2023-04-15T05:58:09;99711.41;;;9.17;77.73
78313;BME280;67568;47.438;21.408;2023-04-15T06:00:36;99725.41;;;9.07;78.46
78313;BME280;67568;47.438;21.408;2023-04-15T06:03:02;99721.84;;;9.20;78.88
78313;BME280;67568;47.438;21.408;2023-04-15T06:05:29;99723.94;;;9.87;76.71
78313;BME280;67568;47.438;21.408;2023-04-15T06:07:56;99719.38;;;10.90;72.71
78313;BME280;67568;47.438;21.408;2023-04-15T06:10:22;99724.66;;;11.75;71.50
78313;BME280;67568;47.438;21.408;2023-04-15T06:12:51;99738.06;;;12.33;68.82
78313;BME280;67568;47.438;21.408;2023-04-15T06:15:18;99728.78;;;12.85;67.25
78313;BME280;67568;47.438;21.408;2023-04-15T06:17:45;99731.66;;;12.97;66.14
78313;BME280;67568;47.438;21.408;2023-04-15T06:20:12;99737.38;;;13.01;66.09
78313;BME280;67568;47.438;21.408;2023-04-15T06:22:38;99733.91;;;12.57;67.98
78313;BME280;67568;47.438;21.408;2023-04-15T06:25:06;99733.19;;;12.04;66.87
78313;BME280;67568;47.438;21.408;2023-04-15T06:27:32;99734.31;;;12.03;66.81
78313;BME280;67568;47.438;21.408;2023-04-15T06:29:59;99736.09;;;11.64;68.94
78313;BME280;67568;47.438;21.408;2023-04-15T06:32:25;99739.19;;;11.71;68.72
78313;BME280;67568;47.438;21.408;2023-04-15T06:34:52;99738.88;;;11.82;69.62
78313;BME280;67568;47.438;21.408;2023-04-15T06:37:19;99746.72;;;11.97;68.04
78313;BME280;67568;47.438;21.408;2023-04-15T06:39:45;99750.31;;;12.24;68.63
78313;BME280;67568;47.438;21.408;2023-04-15T06:42:12;99760.22;;;12.68;68.56
78313;BME280;67568;47.438;21.408;2023-04-15T06:44:39;99762.34;;;13.27;66.37
78313;BME280;67568;47.438;21.408;2023-04-15T06:47:06;99756.19;;;13.72;64.57
78313;BME280;67568;47.438;21.408;2023-04-15T06:49:32;99762.44;;;14.11;61.63
78313;BME280;67568;47.438;21.408;2023-04-15T06:51:59;99763.50;;;14.60;61.24
78313;BME280;67568;47.438;21.408;2023-04-15T06:54:26;99765.56;;;15.09;59.87
78313;BME280;67568;47.438;21.408;2023-04-15T06:56:52;99768.81;;;15.48;56.66
78313;BME280;67568;47.438;21.408;2023-04-15T06:59:19;99768.38;;;15.34;57.66
78313;BME280;67568;47.438;21.408;2023-04-15T07:01:46;99771.63;;;15.85;56.93
78313;BME280;67568;47.438;21.408;2023-04-15T07:04:12;99765.47;;;16.48;55.75
78313;BME280;67568;47.438;21.408;2023-04-15T07:06:39;99768.97;;;16.16;55.87
78313;BME280;67568;47.438;21.408;2023-04-15T07:09:06;99764.63;;;16.59;55.60
78313;BME280;67568;47.438;21.408;2023-04-15T07:11:32;99771.06;;;16.48;54.42
78313;BME280;67568;47.438;21.408;2023-04-15T07:13:59;99775.41;;;16.05;54.91
78313;BME280;67568;47.438;21.408;2023-04-15T07:16:25;99780.03;;;16.25;55.83
78313;BME280;67568;47.438;21.408;2023-04-15T07:18:55;99781.38;;;16.03;56.35
78313;BME280;67568;47.438;21.408;2023-04-15T07:21:23;99787.56;;;16.37;56.38
78313;BME280;67568;47.438;21.408;2023-04-15T07:23:49;99785.41;;;16.74;55.61
78313;BME280;67568;47.438;21.408;2023-04-15T07:26:16;99779.72;;;17.15;54.22
78313;BME280;67568;47.438;21.408;2023-04-15T07:28:43;99781.13;;;16.64;52.80
78313;BME280;67568;47.438;21.408;2023-04-15T07:31:09;99784.31;;;15.94;55.89
78313;BME280;67568;47.438;21.408;2023-04-15T07:33:36;99784.16;;;16.03;55.49
78313;BME280;67568;47.438;21.408;2023-04-15T07:36:03;99783.34;;;16.71;54.77
78313;BME280;67568;47.438;21.408;2023-04-15T07:38:31;99782.53;;;17.15;53.96
78313;BME280;67568;47.438;21.408;2023-04-15T07:40:57;99778.81;;;17.11;53.29
78313;BME280;67568;47.438;21.408;2023-04-15T07:43:24;99782.69;;;17.53;52.28
78313;BME280;67568;47.438;21.408;2023-04-15T07:45:51;99777.53;;;17.24;53.57
78313;BME280;67568;47.438;21.408;2023-04-15T07:48:17;99776.97;;;16.86;52.66
78313;BME280;67568;47.438;21.408;2023-04-15T07:50:44;99779.91;;;17.53;52.13
78313;BME280;67568;47.438;21.408;2023-04-15T07:53:11;99776.66;;;18.03;50.98
78313;BME280;67568;47.438;21.408;2023-04-15T07:55:37;99787.13;;;17.39;51.53
78313;BME280;67568;47.438;21.408;2023-04-15T07:58:04;99785.13;;;17.71;51.68
78313;BME280;67568;47.438;21.408;2023-04-15T08:00:31;99782.16;;;17.32;51.65
78313;BME280;67568;47.438;21.408;2023-04-15T08:02:57;99794.63;;;17.82;51.43
78313;BME280;67568;47.438;21.408;2023-04-15T08:05:24;99789.47;;;17.52;51.74
78313;BME280;67568;47.438;21.408;2023-04-15T08:07:51;99793.16;;;17.88;52.78
78313;BME280;67568;47.438;21.408;2023-04-15T08:10:17;99797.53;;;18.05;51.02
78313;BME280;67568;47.438;21.408;2023-04-15T08:12:44;99795.41;;;17.83;50.47
78313;BME280;67568;47.438;21.408;2023-04-15T08:15:10;99794.16;;;16.73;54.10
78313;BME280;67568;47.438;21.408;2023-04-15T08:17:37;99793.13;;;16.09;56.04
78313;BME280;67568;47.438;21.408;2023-04-15T08:20:04;99796.41;;;16.39;54.92
78313;BME280;67568;47.438;21.408;2023-04-15T08:22:31;99799.56;;;17.09;53.89
78313;BME280;67568;47.438;21.408;2023-04-15T08:24:58;99798.75;;;16.65;53.13
78313;BME280;67568;47.438;21.408;2023-04-15T08:27:24;99803.91;;;17.39;52.32
78313;BME280;67568;47.438;21.408;2023-04-15T08:29:51;99803.03;;;17.35;52.00
78313;BME280;67568;47.438;21.408;2023-04-15T08:32:17;99803.66;;;17.60;51.80
78313;BME280;67568;47.438;21.408;2023-04-15T08:34:44;99809.22;;;17.91;52.40
78313;BME280;67568;47.438;21.408;2023-04-15T08:37:14;99809.94;;;18.24;50.68
78313;BME280;67568;47.438;21.408;2023-04-15T08:39:40;99802.97;;;17.98;51.43
78313;BME280;67568;47.438;21.408;2023-04-15T08:42:11;99818.00;;;18.25;50.65
78313;BME280;67568;47.438;21.408;2023-04-15T08:44:42;99813.28;;;18.49;49.79
78313;BME280;67568;47.438;21.408;2023-04-15T08:47:12;99806.88;;;18.48;49.40
78313;BME280;67568;47.438;21.408;2023-04-15T08:49:39;99806.53;;;19.35;47.67
78313;BME280;67568;47.438;21.408;2023-04-15T08:52:06;99805.09;;;19.94;45.28
78313;BME280;67568;47.438;21.408;2023-04-15T08:54:34;99811.19;;;19.04;47.42
78313;BME280;67568;47.438;21.408;2023-04-15T08:57:01;99814.44;;;19.06;46.65
78313;BME280;67568;47.438;21.408;2023-04-15T08:59:31;99803.47;;;18.78;45.37
78313;BME280;67568;47.438;21.408;2023-04-15T09:01:58;99810.41;;;19.26;45.51
78313;BME280;67568;47.438;21.408;2023-04-15T09:04:24;99802.00;;;18.84;44.66
78313;BME280;67568;47.438;21.408;2023-04-15T09:06:51;99808.25;;;18.19;45.78
78313;BME280;67568;47.438;21.408;2023-04-15T09:09:18;99803.63;;;17.91;47.48
78313;BME280;67568;47.438;21.408;2023-04-15T09:11:44;99811.47;;;18.02;46.62
78313;BME280;67568;47.438;21.408;2023-04-15T09:14:11;99801.78;;;18.54;47.20
78313;BME280;67568;47.438;21.408;2023-04-15T09:16:57;99809.97;;;17.57;46.50
78313;BME280;67568;47.438;21.408;2023-04-15T09:19:25;99801.19;;;16.67;46.48
78313;BME280;67568;47.438;21.408;2023-04-15T09:21:53;99797.47;;;15.94;48.48
78313;BME280;67568;47.438;21.408;2023-04-15T09:24:24;99805.97;;;16.66;49.35
78313;BME280;67568;47.438;21.408;2023-04-15T09:26:52;99799.38;;;16.18;50.02
78313;BME280;67568;47.438;21.408;2023-04-15T09:29:19;99800.03;;;15.87;49.75
78313;BME280;67568;47.438;21.408;2023-04-15T09:31:49;99808.19;;;15.80;50.56
78313;BME280;67568;47.438;21.408;2023-04-15T09:34:16;99815.06;;;15.70;50.15
78313;BME280;67568;47.438;21.408;2023-04-15T09:39:15;99800.47;;;16.01;49.43
78313;BME280;67568;47.438;21.408;2023-04-15T09:41:42;99796.31;;;15.83;49.38
78313;BME280;67568;47.438;21.408;2023-04-15T09:44:22;99799.25;;;16.27;50.03
78313;BME280;67568;47.438;21.408;2023-04-15T09:46:49;99790.81;;;17.27;46.62
78313;BME280;67568;47.438;21.408;2023-04-15T09:49:15;99800.97;;;16.88;46.56
78313;BME280;67568;47.438;21.408;2023-04-15T09:51:42;99793.34;;;18.15;45.14
78313;BME280;67568;47.438;21.408;2023-04-15T09:54:23;99796.28;;;18.61;42.30
78313;BME280;67568;47.438;21.408;2023-04-15T09:56:49;99793.19;;;19.28;43.17
78313;BME280;67568;47.438;21.408;2023-04-15T09:59:16;99801.16;;;19.98;39.65
78313;BME280;67568;47.438;21.408;2023-04-15T10:01:45;99794.41;;;19.76;40.91
78313;BME280;67568;47.438;21.408;2023-04-15T10:04:12;99794.91;;;20.69;38.92
78313;BME280;67568;47.438;21.408;2023-04-15T10:06:40;99783.38;;;20.51;38.92
78313;BME280;67568;47.438;21.408;2023-04-15T10:09:07;99794.22;;;20.19;37.69
78313;BME280;67568;47.438;21.408;2023-04-15T10:11:34;99804.81;;;20.29;39.14
78313;BME280;67568;47.438;21.408;2023-04-15T10:14:00;99794.53;;;21.52;36.89
78313;BME280;67568;47.438;21.408;2023-04-15T10:16:31;99786.59;;;22.31;34.95
78313;BME280;67568;47.438;21.408;2023-04-15T10:19:00;99796.47;;;21.04;35.18
78313;BME280;67568;47.438;21.408;2023-04-15T10:21:29;99797.34;;;19.15;36.90
78313;BME280;67568;47.438;21.408;2023-04-15T10:23:56;99786.34;;;18.44;37.80
78313;BME280;67568;47.438;21.408;2023-04-15T10:26:23;99776.00;;;18.68;38.97
78313;BME280;67568;47.438;21.408;2023-04-15T10:28:50;99796.53;;;19.60;38.14
78313;BME280;67568;47.438;21.408;2023-04-15T10:31:18;99796.56;;;20.77;36.35
78313;BME280;67568;47.438;21.408;2023-04-15T10:33:46;99787.50;;;19.01;39.17
78313;BME280;67568;47.438;21.408;2023-04-15T10:36:14;99782.81;;;18.28;40.58
78313;BME280;67568;47.438;21.408;2023-04-15T10:38:44;99785.66;;;17.76;41.48
78313;BME280;67568;47.438;21.408;2023-04-15T10:43:52;99780.63;;;17.50;41.18
78313;BME280;67568;47.438;21.408;2023-04-15T10:46:37;99780.81;;;17.42;41.28
78313;BME280;67568;47.438;21.408;2023-04-15T10:49:15;99783.41;;;17.82;41.53
78313;BME280;67568;47.438;21.408;2023-04-15T10:51:48;99785.03;;;17.51;40.68
78313;BME280;67568;47.438;21.408;2023-04-15T10:56:50;99777.19;;;17.25;40.74
78313;BME280;67568;47.438;21.408;2023-04-15T10:59:17;99775.03;;;16.75;41.22
78313;BME280;67568;47.438;21.408;2023-04-15T11:01:51;99781.16;;;17.24;40.93
78313;BME280;67568;47.438;21.408;2023-04-15T11:07:35;99790.94;;;17.30;41.42
78313;BME280;67568;47.438;21.408;2023-04-15T11:10:49;99792.38;;;17.08;40.82
78313;BME280;67568;47.438;21.408;2023-04-15T11:15:43;99799.16;;;17.39;41.64
78313;BME280;67568;47.438;21.408;2023-04-15T11:18:15;99799.94;;;17.56;40.25
78313;BME280;67568;47.438;21.408;2023-04-15T11:20:45;99797.44;;;17.35;41.10
78313;BME280;67568;47.438;21.408;2023-04-15T11:23:14;99785.53;;;16.78;42.64
78313;BME280;67568;47.438;21.408;2023-04-15T11:25:41;99797.78;;;16.05;44.07
78313;BME280;67568;47.438;21.408;2023-04-15T11:28:10;99803.50;;;15.96;44.58
78313;BME280;67568;47.438;21.408;2023-04-15T11:30:37;99801.97;;;16.39;44.39
78313;BME280;67568;47.438;21.408;2023-04-15T11:33:10;99793.63;;;17.27;43.19
78313;BME280;67568;47.438;21.408;2023-04-15T11:35:37;99784.78;;;18.08;43.85
78313;BME280;67568;47.438;21.408;2023-04-15T11:38:05;99789.78;;;18.18;40.01
78313;BME280;67568;47.438;21.408;2023-04-15T11:40:33;99800.50;;;17.29;41.01
78313;BME280;67568;47.438;21.408;2023-04-15T11:43:11;99802.38;;;17.41;42.21
78313;BME280;67568;47.438;21.408;2023-04-15T11:45:56;99807.25;;;17.13;43.05
78313;BME280;67568;47.438;21.408;2023-04-15T11:48:34;99807.97;;;17.41;41.67
78313;BME280;67568;47.438;21.408;2023-04-15T11:51:03;99809.25;;;16.96;41.32
78313;BME280;67568;47.438;21.408;2023-04-15T11:53:47;99807.84;;;16.34;40.94
78313;BME280;67568;47.438;21.408;2023-04-15T11:56:22;99807.16;;;16.25;41.06
78313;BME280;67568;47.438;21.408;2023-04-15T11:58:54;99807.66;;;16.14;41.67
78313;BME280;67568;47.438;21.408;2023-04-15T12:01:30;99824.00;;;15.88;43.13
78313;BME280;67568;47.438;21.408;2023-04-15T12:03:57;99807.00;;;15.93;44.00
78313;BME280;67568;47.438;21.408;2023-04-15T12:06:24;99803.28;;;15.89;44.31
78313;BME280;67568;47.438;21.408;2023-04-15T12:13:58;99820.19;;;15.80;44.64
78313;BME280;67568;47.438;21.408;2023-04-15T12:16:26;99817.81;;;15.82;45.00
78313;BME280;67568;47.438;21.408;2023-04-15T12:18:55;99825.28;;;15.66;45.25
78313;BME280;67568;47.438;21.408;2023-04-15T12:21:23;99818.88;;;15.65;44.68
78313;BME280;67568;47.438;21.408;2023-04-15T12:23:54;99819.22;;;15.76;45.50
78313;BME280;67568;47.438;21.408;2023-04-15T12:26:26;99813.06;;;15.70;45.55
78313;BME280;67568;47.438;21.408;2023-04-15T12:29:03;99817.25;;;15.52;45.58
78313;BME280;67568;47.438;21.408;2023-04-15T12:31:30;99809.47;;;15.45;46.13
78313;BME280;67568;47.438;21.408;2023-04-15T12:33:58;99813.38;;;15.57;45.91
78313;BME280;67568;47.438;21.408;2023-04-15T12:36:24;99815.25;;;15.65;47.08
78313;BME280;67568;47.438;21.408;2023-04-15T12:38:51;99804.53;;;16.04;45.88
78313;BME280;67568;47.438;21.408;2023-04-15T12:41:19;99810.75;;;16.37;45.41
78313;BME280;67568;47.438;21.408;2023-04-15T12:43:46;99813.84;;;16.08;45.04
78313;BME280;67568;47.438;21.408;2023-04-15T12:46:13;99811.88;;;15.96;44.82
78313;BME280;67568;47.438;21.408;2023-04-15T12:48:39;99834.91;;;15.56;46.28
78313;BME280;67568;47.438;21.408;2023-04-15T12:51:06;99854.38;;;15.07;48.54
78313;BME280;67568;47.438;21.408;2023-04-15T12:53:33;99833.75;;;14.87;53.97
78313;BME280;67568;47.438;21.408;2023-04-15T12:55:59;99834.38;;;15.05;53.32
78313;BME280;67568;47.438;21.408;2023-04-15T12:58:26;99833.44;;;15.01;48.96
78313;BME280;67568;47.438;21.408;2023-04-15T13:00:52;99836.44;;;14.96;50.87
78313;BME280;67568;47.438;21.408;2023-04-15T13:03:19;99826.88;;;14.84;49.48
78313;BME280;67568;47.438;21.408;2023-04-15T13:05:46;99828.94;;;14.75;50.27
78313;BME280;67568;47.438;21.408;2023-04-15T13:08:12;99828.00;;;14.71;50.39
78313;BME280;67568;47.438;21.408;2023-04-15T13:10:39;99838.00;;;14.72;51.88
78313;BME280;67568;47.438;21.408;2023-04-15T13:13:06;99831.97;;;14.82;51.32
78313;BME280;67568;47.438;21.408;2023-04-15T13:15:32;99837.34;;;14.88;48.97